sensor_id;sensor_type;location;lat;lon;timestamp;temperature;humidity
37530;DHT22;23374;52.758;6.872;2022-10-26T00:00:42;11.30;99.90
37530;DHT22;23374;52.758;6.872;2022-10-26T00:03:03;11.30;99.90
37530;DHT22;23374;52.758;6.872;2022-10-26T00:05:23;11.30;99.90
37530;DHT22;23374;52.758;6.872;2022-10-26T00:07:44;11.30;99.90
37530;DHT22;23374;52.758;6.872;2022-10-26T00:10:05;11.30;99.90
37530;DHT22;23374;52.758;6.872;2022-10-26T00:12:25;11.30;99.90
37530;DHT22;23374;52.758;6.872;2022-10-26T00:14:46;11.30;99.90
37530;DHT22;23374;52.758;6.872;2022-10-26T00:17:07;11.20;99.90
37530;DHT22;23374;52.758;6.872;2022-10-26T00:19:27;11.20;99.90
37530;DHT22;23374;52.758;6.872;2022-10-26T00:21:47;11.10;99.90
37530;DHT22;23374;52.758;6.872;2022-10-26T00:24:10;11.10;99.90
37530;DHT22;23374;52.758;6.872;2022-10-26T00:26:31;11.10;99.90
37530;DHT22;23374;52.758;6.872;2022-10-26T00:28:55;11.10;99.90
37530;DHT22;23374;52.758;6.872;2022-10-26T00:31:17;11.10;99.90
37530;DHT22;23374;52.758;6.872;2022-10-26T00:33:37;11.00;99.90
37530;DHT22;23374;52.758;6.872;2022-10-26T00:35:57;11.00;99.90
37530;DHT22;23374;52.758;6.872;2022-10-26T00:38:18;11.00;99.90
37530;DHT22;23374;52.758;6.872;2022-10-26T00:40:38;11.00;99.90
37530;DHT22;23374;52.758;6.872;2022-10-26T00:42:58;11.00;99.90
37530;DHT22;23374;52.758;6.872;2022-10-26T00:45:27;10.90;99.90
37530;DHT22;23374;52.758;6.872;2022-10-26T00:47:53;10.90;99.90
37530;DHT22;23374;52.758;6.872;2022-10-26T00:50:27;10.90;99.90
37530;DHT22;23374;52.758;6.872;2022-10-26T00:52:50;10.90;99.90
37530;DHT22;23374;52.758;6.872;2022-10-26T00:55:11;10.80;99.90
37530;DHT22;23374;52.758;6.872;2022-10-26T00:57:32;10.80;99.90
37530;DHT22;23374;52.758;6.872;2022-10-26T00:59:54;10.80;99.90
37530;DHT22;23374;52.758;6.872;2022-10-26T01:02:16;10.80;99.90
37530;DHT22;23374;52.758;6.872;2022-10-26T01:04:37;10.70;99.90
37530;DHT22;23374;52.758;6.872;2022-10-26T01:06:59;10.70;99.90
37530;DHT22;23374;52.758;6.872;2022-10-26T01:09:20;10.70;99.90
37530;DHT22;23374;52.758;6.872;2022-10-26T01:11:41;10.70;99.90
37530;DHT22;23374;52.758;6.872;2022-10-26T01:14:05;10.70;99.90
37530;DHT22;23374;52.758;6.872;2022-10-26T01:27:56;10.60;99.90
37530;DHT22;23374;52.758;6.872;2022-10-26T01:30:41;10.60;99.90
37530;DHT22;23374;52.758;6.872;2022-10-26T01:36:43;10.50;99.90
37530;DHT22;23374;52.758;6.872;2022-10-26T01:39:21;10.50;99.90
37530;DHT22;23374;52.758;6.872;2022-10-26T01:41:59;10.50;99.90
37530;DHT22;23374;52.758;6.872;2022-10-26T01:44:43;10.40;99.90
37530;DHT22;23374;52.758;6.872;2022-10-26T01:47:06;10.40;99.90
37530;DHT22;23374;52.758;6.872;2022-10-26T01:49:55;10.40;99.90
37530;DHT22;23374;52.758;6.872;2022-10-26T01:52:18;10.40;99.90
37530;DHT22;23374;52.758;6.872;2022-10-26T01:54:39;10.40;99.90
37530;DHT22;23374;52.758;6.872;2022-10-26T01:57:02;10.40;99.90
37530;DHT22;23374;52.758;6.872;2022-10-26T01:59:52;10.40;99.90
37530;DHT22;23374;52.758;6.872;2022-10-26T02:03:19;10.40;99.90
37530;DHT22;23374;52.758;6.872;2022-10-26T02:09:07;10.40;99.90
37530;DHT22;23374;52.758;6.872;2022-10-26T02:11:47;10.40;99.90
37530;DHT22;23374;52.758;6.872;2022-10-26T02:14:54;10.40;99.90
37530;DHT22;23374;52.758;6.872;2022-10-26T02:20:07;10.40;99.90
37530;DHT22;23374;52.758;6.872;2022-10-26T02:22:43;10.40;99.90
37530;DHT22;23374;52.758;6.872;2022-10-26T02:25:10;10.30;99.90
37530;DHT22;23374;52.758;6.872;2022-10-26T02:27:35;10.30;99.90
37530;DHT22;23374;52.758;6.872;2022-10-26T02:29:58;10.30;99.90
37530;DHT22;23374;52.758;6.872;2022-10-26T02:32:23;10.30;99.90
37530;DHT22;23374;52.758;6.872;2022-10-26T02:34:46;10.30;99.90
37530;DHT22;23374;52.758;6.872;2022-10-26T02:37:08;10.30;99.90
37530;DHT22;23374;52.758;6.872;2022-10-26T02:39:32;10.40;99.90
37530;DHT22;23374;52.758;6.872;2022-10-26T02:41:54;10.40;99.90
37530;DHT22;23374;52.758;6.872;2022-10-26T02:44:32;10.40;99.90
37530;DHT22;23374;52.758;6.872;2022-10-26T02:46:54;10.40;99.90
37530;DHT22;23374;52.758;6.872;2022-10-26T02:49:16;10.40;99.90
37530;DHT22;23374;52.758;6.872;2022-10-26T02:51:53;10.40;99.90
37530;DHT22;23374;52.758;6.872;2022-10-26T03:00:32;10.40;99.90
37530;DHT22;23374;52.758;6.872;2022-10-26T03:02:55;10.40;99.90
37530;DHT22;23374;52.758;6.872;2022-10-26T03:05:30;10.40;99.90
37530;DHT22;23374;52.758;6.872;2022-10-26T03:07:56;10.40;99.90
37530;DHT22;23374;52.758;6.872;2022-10-26T03:10:17;10.40;99.90
37530;DHT22;23374;52.758;6.872;2022-10-26T03:12:37;10.40;99.90
37530;DHT22;23374;52.758;6.872;2022-10-26T03:14:58;10.40;99.90
37530;DHT22;23374;52.758;6.872;2022-10-26T03:17:18;10.40;99.90
37530;DHT22;23374;52.758;6.872;2022-10-26T03:19:38;10.40;99.90
37530;DHT22;23374;52.758;6.872;2022-10-26T03:21:58;10.40;99.90
37530;DHT22;23374;52.758;6.872;2022-10-26T03:24:18;10.40;99.90
37530;DHT22;23374;52.758;6.872;2022-10-26T03:26:38;10.40;99.90
37530;DHT22;23374;52.758;6.872;2022-10-26T03:28:58;10.40;99.90
37530;DHT22;23374;52.758;6.872;2022-10-26T03:31:19;10.40;99.90
37530;DHT22;23374;52.758;6.872;2022-10-26T03:33:39;10.40;99.90
37530;DHT22;23374;52.758;6.872;2022-10-26T03:36:00;10.40;99.90
37530;DHT22;23374;52.758;6.872;2022-10-26T03:38:20;10.50;99.90
37530;DHT22;23374;52.758;6.872;2022-10-26T03:40:40;10.50;99.90
37530;DHT22;23374;52.758;6.872;2022-10-26T03:43:02;10.50;99.90
37530;DHT22;23374;52.758;6.872;2022-10-26T03:45:23;10.50;99.90
37530;DHT22;23374;52.758;6.872;2022-10-26T03:47:48;10.50;99.90
37530;DHT22;23374;52.758;6.872;2022-10-26T03:50:10;10.50;99.90
37530;DHT22;23374;52.758;6.872;2022-10-26T03:52:30;10.50;99.90
37530;DHT22;23374;52.758;6.872;2022-10-26T03:54:50;10.50;99.90
37530;DHT22;23374;52.758;6.872;2022-10-26T03:57:11;10.50;99.90
37530;DHT22;23374;52.758;6.872;2022-10-26T03:59:31;10.50;99.90
37530;DHT22;23374;52.758;6.872;2022-10-26T04:01:51;10.50;99.90
37530;DHT22;23374;52.758;6.872;2022-10-26T04:04:11;10.50;99.90
37530;DHT22;23374;52.758;6.872;2022-10-26T04:06:32;10.60;99.90
37530;DHT22;23374;52.758;6.872;2022-10-26T04:08:52;10.60;99.90
37530;DHT22;23374;52.758;6.872;2022-10-26T04:11:17;10.60;99.90
37530;DHT22;23374;52.758;6.872;2022-10-26T04:13:37;10.60;99.90
37530;DHT22;23374;52.758;6.872;2022-10-26T04:15:57;10.60;99.90
37530;DHT22;23374;52.758;6.872;2022-10-26T04:18:18;10.60;99.90
37530;DHT22;23374;52.758;6.872;2022-10-26T04:20:38;10.60;99.90
37530;DHT22;23374;52.758;6.872;2022-10-26T04:23:04;10.60;99.90
37530;DHT22;23374;52.758;6.872;2022-10-26T04:25:24;10.60;99.90
37530;DHT22;23374;52.758;6.872;2022-10-26T04:27:44;10.60;99.90
37530;DHT22;23374;52.758;6.872;2022-10-26T04:30:06;10.60;99.90
37530;DHT22;23374;52.758;6.872;2022-10-26T04:32:28;10.70;99.90
37530;DHT22;23374;52.758;6.872;2022-10-26T04:34:49;10.70;99.90
37530;DHT22;23374;52.758;6.872;2022-10-26T04:37:10;10.70;99.90
37530;DHT22;23374;52.758;6.872;2022-10-26T04:39:30;10.80;99.90
37530;DHT22;23374;52.758;6.872;2022-10-26T04:41:50;10.80;99.90
37530;DHT22;23374;52.758;6.872;2022-10-26T04:44:10;10.80;99.90
37530;DHT22;23374;52.758;6.872;2022-10-26T04:46:30;10.80;99.90
37530;DHT22;23374;52.758;6.872;2022-10-26T04:48:50;10.80;99.90
37530;DHT22;23374;52.758;6.872;2022-10-26T04:51:10;10.80;99.90
37530;DHT22;23374;52.758;6.872;2022-10-26T04:53:31;10.80;99.90
37530;DHT22;23374;52.758;6.872;2022-10-26T04:56:00;10.80;99.90
37530;DHT22;23374;52.758;6.872;2022-10-26T04:58:20;10.80;99.90
37530;DHT22;23374;52.758;6.872;2022-10-26T05:00:40;10.80;99.90
37530;DHT22;23374;52.758;6.872;2022-10-26T05:03:02;10.80;99.90
37530;DHT22;23374;52.758;6.872;2022-10-26T05:05:22;10.80;99.90
37530;DHT22;23374;52.758;6.872;2022-10-26T05:07:43;10.80;99.90
37530;DHT22;23374;52.758;6.872;2022-10-26T05:10:04;10.80;99.90
37530;DHT22;23374;52.758;6.872;2022-10-26T05:12:24;10.80;99.90
37530;DHT22;23374;52.758;6.872;2022-10-26T05:14:45;10.90;99.90
37530;DHT22;23374;52.758;6.872;2022-10-26T05:17:05;10.90;99.90
37530;DHT22;23374;52.758;6.872;2022-10-26T05:19:25;10.90;99.90
37530;DHT22;23374;52.758;6.872;2022-10-26T05:21:45;10.90;99.90
37530;DHT22;23374;52.758;6.872;2022-10-26T05:24:07;10.90;99.90
37530;DHT22;23374;52.758;6.872;2022-10-26T05:26:27;10.90;99.90
37530;DHT22;23374;52.758;6.872;2022-10-26T05:28:49;10.90;99.90
37530;DHT22;23374;52.758;6.872;2022-10-26T05:31:10;10.90;99.90
37530;DHT22;23374;52.758;6.872;2022-10-26T05:33:31;10.90;99.90
37530;DHT22;23374;52.758;6.872;2022-10-26T05:35:53;10.90;99.90
37530;DHT22;23374;52.758;6.872;2022-10-26T05:38:17;10.90;99.90
37530;DHT22;23374;52.758;6.872;2022-10-26T05:40:37;10.80;99.90
37530;DHT22;23374;52.758;6.872;2022-10-26T05:43:01;10.80;99.90
37530;DHT22;23374;52.758;6.872;2022-10-26T05:45:21;10.90;99.90
37530;DHT22;23374;52.758;6.872;2022-10-26T05:47:43;10.90;99.90
37530;DHT22;23374;52.758;6.872;2022-10-26T05:50:04;10.90;99.90
37530;DHT22;23374;52.758;6.872;2022-10-26T05:52:25;10.90;99.90
37530;DHT22;23374;52.758;6.872;2022-10-26T05:54:45;11.00;99.90
37530;DHT22;23374;52.758;6.872;2022-10-26T05:57:11;11.00;99.90
37530;DHT22;23374;52.758;6.872;2022-10-26T05:59:33;11.00;99.90
37530;DHT22;23374;52.758;6.872;2022-10-26T06:04:46;11.00;99.90
37530;DHT22;23374;52.758;6.872;2022-10-26T06:07:13;11.10;99.90
37530;DHT22;23374;52.758;6.872;2022-10-26T06:09:35;11.10;99.90
37530;DHT22;23374;52.758;6.872;2022-10-26T06:11:56;11.10;99.90
37530;DHT22;23374;52.758;6.872;2022-10-26T06:14:17;11.10;99.90
37530;DHT22;23374;52.758;6.872;2022-10-26T06:17:16;11.10;99.90
37530;DHT22;23374;52.758;6.872;2022-10-26T06:22:45;11.10;99.90
37530;DHT22;23374;52.758;6.872;2022-10-26T06:27:01;11.20;99.90
37530;DHT22;23374;52.758;6.872;2022-10-26T06:30:10;11.10;99.90
37530;DHT22;23374;52.758;6.872;2022-10-26T06:32:31;11.10;99.90
37530;DHT22;23374;52.758;6.872;2022-10-26T06:37:36;11.10;99.90
37530;DHT22;23374;52.758;6.872;2022-10-26T06:39:58;11.10;99.90
37530;DHT22;23374;52.758;6.872;2022-10-26T06:42:20;11.00;99.90
37530;DHT22;23374;52.758;6.872;2022-10-26T06:44:41;11.10;99.90
37530;DHT22;23374;52.758;6.872;2022-10-26T06:50:52;11.10;99.90
37530;DHT22;23374;52.758;6.872;2022-10-26T06:53:38;11.10;99.90
37530;DHT22;23374;52.758;6.872;2022-10-26T06:56:02;11.10;99.90
37530;DHT22;23374;52.758;6.872;2022-10-26T06:58:28;11.20;99.90
37530;DHT22;23374;52.758;6.872;2022-10-26T07:00:51;11.10;99.90
37530;DHT22;23374;52.758;6.872;2022-10-26T07:03:12;11.20;99.90
37530;DHT22;23374;52.758;6.872;2022-10-26T07:05:33;11.20;99.90
37530;DHT22;23374;52.758;6.872;2022-10-26T07:07:53;11.20;99.90
37530;DHT22;23374;52.758;6.872;2022-10-26T07:10:14;11.20;99.90
37530;DHT22;23374;52.758;6.872;2022-10-26T07:12:34;11.20;99.90
37530;DHT22;23374;52.758;6.872;2022-10-26T07:14:55;11.20;99.90
37530;DHT22;23374;52.758;6.872;2022-10-26T07:17:15;11.20;99.90
37530;DHT22;23374;52.758;6.872;2022-10-26T07:19:36;11.20;99.90
37530;DHT22;23374;52.758;6.872;2022-10-26T07:21:57;11.30;99.90
37530;DHT22;23374;52.758;6.872;2022-10-26T07:24:20;11.30;99.90
37530;DHT22;23374;52.758;6.872;2022-10-26T07:26:41;11.30;99.90
37530;DHT22;23374;52.758;6.872;2022-10-26T07:29:01;11.30;99.90
37530;DHT22;23374;52.758;6.872;2022-10-26T07:31:21;11.40;99.90
37530;DHT22;23374;52.758;6.872;2022-10-26T07:33:42;11.40;99.90
37530;DHT22;23374;52.758;6.872;2022-10-26T07:36:05;11.40;99.90
37530;DHT22;23374;52.758;6.872;2022-10-26T07:38:25;11.50;99.90
37530;DHT22;23374;52.758;6.872;2022-10-26T07:40:45;11.60;99.90
37530;DHT22;23374;52.758;6.872;2022-10-26T07:43:06;11.70;99.90
37530;DHT22;23374;52.758;6.872;2022-10-26T07:45:27;11.80;99.90
37530;DHT22;23374;52.758;6.872;2022-10-26T07:47:48;11.90;99.90
37530;DHT22;23374;52.758;6.872;2022-10-26T07:50:09;12.00;99.90
37530;DHT22;23374;52.758;6.872;2022-10-26T07:52:31;12.00;99.90
37530;DHT22;23374;52.758;6.872;2022-10-26T07:54:52;12.10;99.90
37530;DHT22;23374;52.758;6.872;2022-10-26T07:57:12;12.10;99.90
37530;DHT22;23374;52.758;6.872;2022-10-26T07:59:34;12.20;99.90
37530;DHT22;23374;52.758;6.872;2022-10-26T08:01:54;12.20;99.90
37530;DHT22;23374;52.758;6.872;2022-10-26T08:04:15;12.30;99.90
37530;DHT22;23374;52.758;6.872;2022-10-26T08:06:36;12.30;99.90
37530;DHT22;23374;52.758;6.872;2022-10-26T08:08:56;12.40;99.90
37530;DHT22;23374;52.758;6.872;2022-10-26T08:11:17;12.40;99.90
37530;DHT22;23374;52.758;6.872;2022-10-26T08:13:38;12.50;99.90
37530;DHT22;23374;52.758;6.872;2022-10-26T08:15:59;12.60;99.90
37530;DHT22;23374;52.758;6.872;2022-10-26T08:18:20;12.60;99.90
37530;DHT22;23374;52.758;6.872;2022-10-26T08:20:40;12.70;99.90
37530;DHT22;23374;52.758;6.872;2022-10-26T08:23:00;12.70;99.90
37530;DHT22;23374;52.758;6.872;2022-10-26T08:25:23;12.70;99.90
37530;DHT22;23374;52.758;6.872;2022-10-26T08:27:43;12.70;99.90
37530;DHT22;23374;52.758;6.872;2022-10-26T08:30:05;12.70;99.90
37530;DHT22;23374;52.758;6.872;2022-10-26T08:32:25;12.80;99.90
37530;DHT22;23374;52.758;6.872;2022-10-26T08:34:45;12.80;99.90
37530;DHT22;23374;52.758;6.872;2022-10-26T08:37:05;12.90;99.90
37530;DHT22;23374;52.758;6.872;2022-10-26T08:39:26;13.00;99.90
37530;DHT22;23374;52.758;6.872;2022-10-26T08:41:57;13.10;99.90
37530;DHT22;23374;52.758;6.872;2022-10-26T08:44:41;13.10;99.90
37530;DHT22;23374;52.758;6.872;2022-10-26T08:47:39;13.30;99.90
37530;DHT22;23374;52.758;6.872;2022-10-26T08:50:10;13.40;99.90
37530;DHT22;23374;52.758;6.872;2022-10-26T08:52:42;13.60;99.90
37530;DHT22;23374;52.758;6.872;2022-10-26T08:55:15;13.60;99.90
37530;DHT22;23374;52.758;6.872;2022-10-26T08:57:40;13.70;99.90
37530;DHT22;23374;52.758;6.872;2022-10-26T09:00:16;13.70;99.90
37530;DHT22;23374;52.758;6.872;2022-10-26T09:02:37;13.70;99.90
37530;DHT22;23374;52.758;6.872;2022-10-26T09:04:59;13.80;99.90
37530;DHT22;23374;52.758;6.872;2022-10-26T09:08:25;13.80;99.90
37530;DHT22;23374;52.758;6.872;2022-10-26T09:11:17;13.90;99.90
37530;DHT22;23374;52.758;6.872;2022-10-26T09:13:58;14.00;99.90
37530;DHT22;23374;52.758;6.872;2022-10-26T09:19:36;14.00;99.90
37530;DHT22;23374;52.758;6.872;2022-10-26T09:24:28;14.00;99.90
37530;DHT22;23374;52.758;6.872;2022-10-26T09:27:28;14.10;99.90
37530;DHT22;23374;52.758;6.872;2022-10-26T09:29:50;14.20;99.90
37530;DHT22;23374;52.758;6.872;2022-10-26T09:32:23;14.20;99.90
37530;DHT22;23374;52.758;6.872;2022-10-26T09:34:52;14.30;99.90
37530;DHT22;23374;52.758;6.872;2022-10-26T09:37:41;14.40;99.90
37530;DHT22;23374;52.758;6.872;2022-10-26T09:40:30;14.40;99.90
37530;DHT22;23374;52.758;6.872;2022-10-26T09:43:28;14.50;99.90
37530;DHT22;23374;52.758;6.872;2022-10-26T09:45:52;14.60;99.90
37530;DHT22;23374;52.758;6.872;2022-10-26T09:48:45;14.60;99.90
37530;DHT22;23374;52.758;6.872;2022-10-26T09:51:07;14.70;99.90
37530;DHT22;23374;52.758;6.872;2022-10-26T09:53:27;14.80;99.90
37530;DHT22;23374;52.758;6.872;2022-10-26T09:55:49;14.90;99.90
37530;DHT22;23374;52.758;6.872;2022-10-26T09:58:29;15.00;99.90
37530;DHT22;23374;52.758;6.872;2022-10-26T10:00:52;15.10;99.90
37530;DHT22;23374;52.758;6.872;2022-10-26T10:03:31;15.20;99.90
37530;DHT22;23374;52.758;6.872;2022-10-26T10:05:51;15.30;99.90
37530;DHT22;23374;52.758;6.872;2022-10-26T10:08:24;15.50;99.90
37530;DHT22;23374;52.758;6.872;2022-10-26T10:11:10;15.60;99.90
37530;DHT22;23374;52.758;6.872;2022-10-26T10:13:35;15.80;99.90
37530;DHT22;23374;52.758;6.872;2022-10-26T10:16:19;16.00;99.90
37530;DHT22;23374;52.758;6.872;2022-10-26T10:18:41;16.10;99.90
37530;DHT22;23374;52.758;6.872;2022-10-26T10:21:02;16.20;99.90
37530;DHT22;23374;52.758;6.872;2022-10-26T10:24:57;16.30;99.90
37530;DHT22;23374;52.758;6.872;2022-10-26T10:27:18;16.40;99.90
37530;DHT22;23374;52.758;6.872;2022-10-26T10:29:45;16.50;99.90
37530;DHT22;23374;52.758;6.872;2022-10-26T10:32:17;16.50;99.90
37530;DHT22;23374;52.758;6.872;2022-10-26T10:34:39;16.60;99.90
37530;DHT22;23374;52.758;6.872;2022-10-26T10:37:00;16.70;99.90
37530;DHT22;23374;52.758;6.872;2022-10-26T10:39:39;16.70;99.90
37530;DHT22;23374;52.758;6.872;2022-10-26T10:42:01;16.80;99.90
37530;DHT22;23374;52.758;6.872;2022-10-26T10:44:28;16.90;99.90
37530;DHT22;23374;52.758;6.872;2022-10-26T10:46:58;16.90;99.90
37530;DHT22;23374;52.758;6.872;2022-10-26T10:49:25;17.00;99.90
37530;DHT22;23374;52.758;6.872;2022-10-26T10:51:47;17.10;99.90
37530;DHT22;23374;52.758;6.872;2022-10-26T10:54:32;17.20;99.90
37530;DHT22;23374;52.758;6.872;2022-10-26T10:57:05;17.20;94.70
37530;DHT22;23374;52.758;6.872;2022-10-26T10:59:55;17.20;99.90
37530;DHT22;23374;52.758;6.872;2022-10-26T11:08:30;17.30;26.80
37530;DHT22;23374;52.758;6.872;2022-10-26T11:11:09;17.40;86.30
37530;DHT22;23374;52.758;6.872;2022-10-26T11:13:40;17.40;99.90
37530;DHT22;23374;52.758;6.872;2022-10-26T11:16:10;17.50;57.30
37530;DHT22;23374;52.758;6.872;2022-10-26T11:18:38;17.50;92.80
37530;DHT22;23374;52.758;6.872;2022-10-26T11:21:47;17.60;99.90
37530;DHT22;23374;52.758;6.872;2022-10-26T11:27:19;17.60;59.10
37530;DHT22;23374;52.758;6.872;2022-10-26T11:30:24;17.70;19.50
37530;DHT22;23374;52.758;6.872;2022-10-26T11:33:08;17.80;9.50
37530;DHT22;23374;52.758;6.872;2022-10-26T11:35:59;17.80;13.30
37530;DHT22;23374;52.758;6.872;2022-10-26T11:42:40;17.90;90.30
37530;DHT22;23374;52.758;6.872;2022-10-26T11:45:19;17.90;67.40
37530;DHT22;23374;52.758;6.872;2022-10-26T11:47:51;18.00;46.40
37530;DHT22;23374;52.758;6.872;2022-10-26T11:50:22;18.00;37.50
37530;DHT22;23374;52.758;6.872;2022-10-26T11:52:58;18.10;95.00
37530;DHT22;23374;52.758;6.872;2022-10-26T11:55:20;18.10;23.90
37530;DHT22;23374;52.758;6.872;2022-10-26T11:57:41;18.20;70.10
37530;DHT22;23374;52.758;6.872;2022-10-26T12:01:00;18.30;91.00
37530;DHT22;23374;52.758;6.872;2022-10-26T12:03:27;18.30;21.50
37530;DHT22;23374;52.758;6.872;2022-10-26T12:05:52;18.30;59.70
37530;DHT22;23374;52.758;6.872;2022-10-26T12:08:23;18.30;66.70
37530;DHT22;23374;52.758;6.872;2022-10-26T12:11:17;18.30;64.60
37530;DHT22;23374;52.758;6.872;2022-10-26T12:18:49;18.40;32.40
37530;DHT22;23374;52.758;6.872;2022-10-26T12:21:10;18.50;1.00
37530;DHT22;23374;52.758;6.872;2022-10-26T12:23:36;18.60;13.80
37530;DHT22;23374;52.758;6.872;2022-10-26T12:30:37;18.60;1.00
37530;DHT22;23374;52.758;6.872;2022-10-26T12:33:03;18.50;1.00
37530;DHT22;23374;52.758;6.872;2022-10-26T12:35:46;18.50;18.10
37530;DHT22;23374;52.758;6.872;2022-10-26T12:45:18;18.60;8.60
37530;DHT22;23374;52.758;6.872;2022-10-26T12:48:03;18.70;1.00
37530;DHT22;23374;52.758;6.872;2022-10-26T12:50:24;18.70;1.20
37530;DHT22;23374;52.758;6.872;2022-10-26T12:53:09;18.70;32.40
37530;DHT22;23374;52.758;6.872;2022-10-26T12:58:37;18.70;1.00
37530;DHT22;23374;52.758;6.872;2022-10-26T13:01:30;18.80;1.00
37530;DHT22;23374;52.758;6.872;2022-10-26T13:04:47;18.80;11.90
37530;DHT22;23374;52.758;6.872;2022-10-26T13:07:25;18.80;4.80
37530;DHT22;23374;52.758;6.872;2022-10-26T13:10:20;18.80;9.70
37530;DHT22;23374;52.758;6.872;2022-10-26T13:12:57;18.80;1.40
37530;DHT22;23374;52.758;6.872;2022-10-26T13:15:54;18.90;10.60
37530;DHT22;23374;52.758;6.872;2022-10-26T13:18:18;18.90;11.90
37530;DHT22;23374;52.758;6.872;2022-10-26T13:21:24;19.00;42.20
37530;DHT22;23374;52.758;6.872;2022-10-26T13:23:59;19.00;1.00
37530;DHT22;23374;52.758;6.872;2022-10-26T13:26:28;19.00;16.00
37530;DHT22;23374;52.758;6.872;2022-10-26T13:28:54;19.00;1.00
37530;DHT22;23374;52.758;6.872;2022-10-26T13:33:35;19.00;21.50
37530;DHT22;23374;52.758;6.872;2022-10-26T13:35:57;19.00;2.40
37530;DHT22;23374;52.758;6.872;2022-10-26T13:38:22;18.90;28.20
37530;DHT22;23374;52.758;6.872;2022-10-26T13:40:43;18.90;23.20
37530;DHT22;23374;52.758;6.872;2022-10-26T13:43:06;18.90;44.20
37530;DHT22;23374;52.758;6.872;2022-10-26T13:45:42;18.90;68.40
37530;DHT22;23374;52.758;6.872;2022-10-26T13:48:16;18.90;45.90
37530;DHT22;23374;52.758;6.872;2022-10-26T13:50:59;18.90;65.70
37530;DHT22;23374;52.758;6.872;2022-10-26T13:55:38;18.90;53.00
37530;DHT22;23374;52.758;6.872;2022-10-26T13:59:01;19.00;31.00
37530;DHT22;23374;52.758;6.872;2022-10-26T14:01:24;19.10;28.00
37530;DHT22;23374;52.758;6.872;2022-10-26T14:03:45;19.10;53.70
37530;DHT22;23374;52.758;6.872;2022-10-26T14:12:56;19.10;52.90
37530;DHT22;23374;52.758;6.872;2022-10-26T14:15:24;19.20;22.30
37530;DHT22;23374;52.758;6.872;2022-10-26T14:17:50;19.10;38.00
37530;DHT22;23374;52.758;6.872;2022-10-26T14:20:18;19.20;45.50
37530;DHT22;23374;52.758;6.872;2022-10-26T14:22:39;19.20;66.30
37530;DHT22;23374;52.758;6.872;2022-10-26T14:25:00;19.20;86.70
37530;DHT22;23374;52.758;6.872;2022-10-26T14:27:25;19.30;54.70
37530;DHT22;23374;52.758;6.872;2022-10-26T14:29:47;19.20;39.20
37530;DHT22;23374;52.758;6.872;2022-10-26T14:32:30;19.20;50.40
37530;DHT22;23374;52.758;6.872;2022-10-26T14:34:53;19.20;39.30
37530;DHT22;23374;52.758;6.872;2022-10-26T14:37:58;19.30;48.70
37530;DHT22;23374;52.758;6.872;2022-10-26T14:40:22;19.20;29.90
37530;DHT22;23374;52.758;6.872;2022-10-26T14:42:53;19.20;31.80
37530;DHT22;23374;52.758;6.872;2022-10-26T14:48:03;19.10;24.00
37530;DHT22;23374;52.758;6.872;2022-10-26T14:50:24;19.10;51.70
37530;DHT22;23374;52.758;6.872;2022-10-26T14:52:53;19.10;72.30
37530;DHT22;23374;52.758;6.872;2022-10-26T14:55:16;19.00;67.80
37530;DHT22;23374;52.758;6.872;2022-10-26T14:57:42;19.00;85.40
37530;DHT22;23374;52.758;6.872;2022-10-26T15:00:23;19.00;95.30
37530;DHT22;23374;52.758;6.872;2022-10-26T15:02:49;18.90;99.90
37530;DHT22;23374;52.758;6.872;2022-10-26T15:06:32;18.90;99.90
37530;DHT22;23374;52.758;6.872;2022-10-26T15:08:55;18.80;99.90
37530;DHT22;23374;52.758;6.872;2022-10-26T15:11:17;18.70;99.90
37530;DHT22;23374;52.758;6.872;2022-10-26T15:13:41;18.70;99.90
37530;DHT22;23374;52.758;6.872;2022-10-26T15:16:14;18.70;99.90
37530;DHT22;23374;52.758;6.872;2022-10-26T15:18:37;18.60;99.90
37530;DHT22;23374;52.758;6.872;2022-10-26T15:20:58;18.60;99.90
37530;DHT22;23374;52.758;6.872;2022-10-26T15:23:20;18.60;99.90
37530;DHT22;23374;52.758;6.872;2022-10-26T15:26:10;18.60;99.90
37530;DHT22;23374;52.758;6.872;2022-10-26T15:28:40;18.50;99.90
37530;DHT22;23374;52.758;6.872;2022-10-26T15:31:37;18.50;99.90
37530;DHT22;23374;52.758;6.872;2022-10-26T15:34:22;18.40;99.90
37530;DHT22;23374;52.758;6.872;2022-10-26T15:36:42;18.40;99.90
37530;DHT22;23374;52.758;6.872;2022-10-26T15:39:02;18.30;99.90
37530;DHT22;23374;52.758;6.872;2022-10-26T15:41:32;18.30;99.90
37530;DHT22;23374;52.758;6.872;2022-10-26T15:43:57;18.30;99.90
37530;DHT22;23374;52.758;6.872;2022-10-26T15:46:18;18.20;99.90
37530;DHT22;23374;52.758;6.872;2022-10-26T15:48:39;18.10;99.90
37530;DHT22;23374;52.758;6.872;2022-10-26T15:50:59;18.10;99.90
37530;DHT22;23374;52.758;6.872;2022-10-26T15:53:23;18.10;99.90
37530;DHT22;23374;52.758;6.872;2022-10-26T15:55:51;18.00;99.90
37530;DHT22;23374;52.758;6.872;2022-10-26T15:58:12;18.00;99.90
37530;DHT22;23374;52.758;6.872;2022-10-26T16:00:33;17.90;99.90
37530;DHT22;23374;52.758;6.872;2022-10-26T16:02:54;17.90;99.90
37530;DHT22;23374;52.758;6.872;2022-10-26T16:05:15;17.80;99.90
37530;DHT22;23374;52.758;6.872;2022-10-26T16:07:36;17.70;99.90
37530;DHT22;23374;52.758;6.872;2022-10-26T16:09:57;17.70;99.90
37530;DHT22;23374;52.758;6.872;2022-10-26T16:12:18;17.60;99.90
37530;DHT22;23374;52.758;6.872;2022-10-26T16:14:39;17.60;99.90
37530;DHT22;23374;52.758;6.872;2022-10-26T16:16:59;17.50;99.90
37530;DHT22;23374;52.758;6.872;2022-10-26T16:19:19;17.50;99.90
37530;DHT22;23374;52.758;6.872;2022-10-26T16:21:39;17.40;99.90
37530;DHT22;23374;52.758;6.872;2022-10-26T16:24:00;17.40;99.90
37530;DHT22;23374;52.758;6.872;2022-10-26T16:26:21;17.40;99.90
37530;DHT22;23374;52.758;6.872;2022-10-26T16:28:42;17.30;99.90
37530;DHT22;23374;52.758;6.872;2022-10-26T16:31:05;17.30;99.90
37530;DHT22;23374;52.758;6.872;2022-10-26T16:33:26;17.30;99.90
37530;DHT22;23374;52.758;6.872;2022-10-26T16:35:57;17.30;99.90
37530;DHT22;23374;52.758;6.872;2022-10-26T16:38:18;17.30;99.90
37530;DHT22;23374;52.758;6.872;2022-10-26T16:40:38;17.20;99.90
37530;DHT22;23374;52.758;6.872;2022-10-26T16:43:01;17.20;99.90
37530;DHT22;23374;52.758;6.872;2022-10-26T16:45:21;17.20;99.90
37530;DHT22;23374;52.758;6.872;2022-10-26T16:47:41;17.10;99.90
37530;DHT22;23374;52.758;6.872;2022-10-26T16:50:03;17.10;99.90
37530;DHT22;23374;52.758;6.872;2022-10-26T16:52:23;17.10;99.90
37530;DHT22;23374;52.758;6.872;2022-10-26T16:54:44;17.10;99.90
37530;DHT22;23374;52.758;6.872;2022-10-26T16:57:05;17.10;99.90
37530;DHT22;23374;52.758;6.872;2022-10-26T16:59:25;17.10;99.90
37530;DHT22;23374;52.758;6.872;2022-10-26T17:01:45;17.10;99.90
37530;DHT22;23374;52.758;6.872;2022-10-26T17:04:05;17.20;99.90
37530;DHT22;23374;52.758;6.872;2022-10-26T17:06:25;17.20;99.90
37530;DHT22;23374;52.758;6.872;2022-10-26T17:08:46;17.20;99.90